sensor_id;sensor_type;location;lat;lon;timestamp;temperature;humidity
18733;DHT22;9495;51.210;2.934;2023-04-24T00:00:10;10.80;99.90
18733;DHT22;9495;51.210;2.934;2023-04-24T00:02:39;10.80;99.90
18733;DHT22;9495;51.210;2.934;2023-04-24T00:05:08;10.80;99.90
18733;DHT22;9495;51.210;2.934;2023-04-24T00:07:37;10.70;99.90
18733;DHT22;9495;51.210;2.934;2023-04-24T00:10:06;10.60;99.90
18733;DHT22;9495;51.210;2.934;2023-04-24T00:12:36;10.60;99.90
18733;DHT22;9495;51.210;2.934;2023-04-24T00:15:05;10.60;99.90
18733;DHT22;9495;51.210;2.934;2023-04-24T00:17:34;10.70;99.90
18733;DHT22;9495;51.210;2.934;2023-04-24T00:20:03;10.70;99.90
18733;DHT22;9495;51.210;2.934;2023-04-24T00:22:33;10.70;99.90
18733;DHT22;9495;51.210;2.934;2023-04-24T00:25:02;10.60;99.90
18733;DHT22;9495;51.210;2.934;2023-04-24T00:27:31;10.70;99.90
18733;DHT22;9495;51.210;2.934;2023-04-24T00:30:00;10.60;99.90
18733;DHT22;9495;51.210;2.934;2023-04-24T00:32:29;10.60;99.90
18733;DHT22;9495;51.210;2.934;2023-04-24T00:34:58;10.60;99.90
18733;DHT22;9495;51.210;2.934;2023-04-24T00:37:26;10.70;99.90
18733;DHT22;9495;51.210;2.934;2023-04-24T00:39:55;10.60;99.90
18733;DHT22;9495;51.210;2.934;2023-04-24T00:42:24;10.60;99.90
18733;DHT22;9495;51.210;2.934;2023-04-24T00:44:53;10.60;99.90
18733;DHT22;9495;51.210;2.934;2023-04-24T00:47:24;10.60;99.90
18733;DHT22;9495;51.210;2.934;2023-04-24T00:49:53;10.50;99.90
18733;DHT22;9495;51.210;2.934;2023-04-24T00:52:21;10.50;99.90
18733;DHT22;9495;51.210;2.934;2023-04-24T00:54:51;10.60;99.90
18733;DHT22;9495;51.210;2.934;2023-04-24T00:57:19;10.60;99.90
18733;DHT22;9495;51.210;2.934;2023-04-24T00:59:48;10.60;99.90
18733;DHT22;9495;51.210;2.934;2023-04-24T01:02:17;10.50;99.90
18733;DHT22;9495;51.210;2.934;2023-04-24T01:04:48;10.70;99.90
18733;DHT22;9495;51.210;2.934;2023-04-24T01:07:19;10.60;99.90
18733;DHT22;9495;51.210;2.934;2023-04-24T01:09:48;10.60;99.90
18733;DHT22;9495;51.210;2.934;2023-04-24T01:12:18;10.60;99.90
18733;DHT22;9495;51.210;2.934;2023-04-24T01:14:47;10.60;99.90
18733;DHT22;9495;51.210;2.934;2023-04-24T01:17:15;10.70;99.90
18733;DHT22;9495;51.210;2.934;2023-04-24T01:19:44;10.70;99.90
18733;DHT22;9495;51.210;2.934;2023-04-24T01:22:15;10.70;99.90
18733;DHT22;9495;51.210;2.934;2023-04-24T01:24:44;10.70;99.90
18733;DHT22;9495;51.210;2.934;2023-04-24T01:27:13;10.60;99.90
18733;DHT22;9495;51.210;2.934;2023-04-24T01:29:41;10.80;99.90
18733;DHT22;9495;51.210;2.934;2023-04-24T01:32:10;10.70;99.90
18733;DHT22;9495;51.210;2.934;2023-04-24T01:34:39;10.60;99.90
18733;DHT22;9495;51.210;2.934;2023-04-24T01:37:08;10.70;99.90
18733;DHT22;9495;51.210;2.934;2023-04-24T01:39:38;10.50;99.90
18733;DHT22;9495;51.210;2.934;2023-04-24T01:42:07;10.40;99.90
18733;DHT22;9495;51.210;2.934;2023-04-24T01:44:35;10.50;99.90
18733;DHT22;9495;51.210;2.934;2023-04-24T01:47:04;10.70;99.90
18733;DHT22;9495;51.210;2.934;2023-04-24T01:49:33;10.70;99.90
18733;DHT22;9495;51.210;2.934;2023-04-24T01:52:02;10.90;99.90
18733;DHT22;9495;51.210;2.934;2023-04-24T01:54:30;10.70;99.90
18733;DHT22;9495;51.210;2.934;2023-04-24T01:57:00;10.70;99.90
18733;DHT22;9495;51.210;2.934;2023-04-24T01:59:30;10.60;99.90
18733;DHT22;9495;51.210;2.934;2023-04-24T02:01:59;10.50;99.90
18733;DHT22;9495;51.210;2.934;2023-04-24T02:04:28;10.70;99.90
18733;DHT22;9495;51.210;2.934;2023-04-24T02:06:56;10.70;99.90
18733;DHT22;9495;51.210;2.934;2023-04-24T02:09:25;10.60;99.90
18733;DHT22;9495;51.210;2.934;2023-04-24T02:11:53;10.40;99.90
18733;DHT22;9495;51.210;2.934;2023-04-24T02:14:25;10.30;99.90
18733;DHT22;9495;51.210;2.934;2023-04-24T02:16:53;10.50;99.90
18733;DHT22;9495;51.210;2.934;2023-04-24T02:19:21;10.60;99.90
18733;DHT22;9495;51.210;2.934;2023-04-24T02:21:50;10.70;99.90
18733;DHT22;9495;51.210;2.934;2023-04-24T02:24:19;10.60;99.90
18733;DHT22;9495;51.210;2.934;2023-04-24T02:26:47;10.50;99.90
18733;DHT22;9495;51.210;2.934;2023-04-24T02:29:16;10.50;99.90
18733;DHT22;9495;51.210;2.934;2023-04-24T02:31:46;10.50;99.90
18733;DHT22;9495;51.210;2.934;2023-04-24T02:34:14;10.40;99.90
18733;DHT22;9495;51.210;2.934;2023-04-24T02:36:43;10.30;99.90
18733;DHT22;9495;51.210;2.934;2023-04-24T02:39:12;10.40;99.90
18733;DHT22;9495;51.210;2.934;2023-04-24T02:41:43;10.50;99.90
18733;DHT22;9495;51.210;2.934;2023-04-24T02:44:12;10.50;99.90
18733;DHT22;9495;51.210;2.934;2023-04-24T02:46:41;10.30;99.90
18733;DHT22;9495;51.210;2.934;2023-04-24T02:49:11;10.20;99.90
18733;DHT22;9495;51.210;2.934;2023-04-24T02:51:39;10.30;99.90
18733;DHT22;9495;51.210;2.934;2023-04-24T02:54:08;10.20;99.90
18733;DHT22;9495;51.210;2.934;2023-04-24T02:56:38;10.00;99.90
18733;DHT22;9495;51.210;2.934;2023-04-24T02:59:06;10.10;99.90
18733;DHT22;9495;51.210;2.934;2023-04-24T03:01:35;10.40;99.90
18733;DHT22;9495;51.210;2.934;2023-04-24T03:04:03;10.20;99.90
18733;DHT22;9495;51.210;2.934;2023-04-24T03:06:33;10.20;99.90
18733;DHT22;9495;51.210;2.934;2023-04-24T03:09:02;10.20;99.90
18733;DHT22;9495;51.210;2.934;2023-04-24T03:11:31;10.00;99.90
18733;DHT22;9495;51.210;2.934;2023-04-24T03:14:00;10.00;99.90
18733;DHT22;9495;51.210;2.934;2023-04-24T03:16:28;10.10;99.90
18733;DHT22;9495;51.210;2.934;2023-04-24T03:18:57;10.00;99.90
18733;DHT22;9495;51.210;2.934;2023-04-24T03:21:26;10.20;99.90
18733;DHT22;9495;51.210;2.934;2023-04-24T03:23:56;10.10;99.90
18733;DHT22;9495;51.210;2.934;2023-04-24T03:26:24;10.30;99.90
18733;DHT22;9495;51.210;2.934;2023-04-24T03:28:53;10.00;99.90
18733;DHT22;9495;51.210;2.934;2023-04-24T03:31:21;10.10;99.90
18733;DHT22;9495;51.210;2.934;2023-04-24T03:33:50;10.00;99.90
18733;DHT22;9495;51.210;2.934;2023-04-24T03:36:19;9.90;99.90
18733;DHT22;9495;51.210;2.934;2023-04-24T03:38:47;9.90;99.90
18733;DHT22;9495;51.210;2.934;2023-04-24T03:41:17;10.00;99.90
18733;DHT22;9495;51.210;2.934;2023-04-24T03:43:45;9.90;99.90
18733;DHT22;9495;51.210;2.934;2023-04-24T03:46:14;9.90;99.90
18733;DHT22;9495;51.210;2.934;2023-04-24T03:48:42;10.10;99.90
18733;DHT22;9495;51.210;2.934;2023-04-24T03:51:11;9.90;99.90
18733;DHT22;9495;51.210;2.934;2023-04-24T03:53:39;9.90;99.90
18733;DHT22;9495;51.210;2.934;2023-04-24T03:56:08;9.90;99.90
18733;DHT22;9495;51.210;2.934;2023-04-24T03:58:37;10.00;99.90
18733;DHT22;9495;51.210;2.934;2023-04-24T04:01:06;10.00;99.90
18733;DHT22;9495;51.210;2.934;2023-04-24T04:03:35;10.00;99.90
18733;DHT22;9495;51.210;2.934;2023-04-24T04:06:04;10.00;99.90
18733;DHT22;9495;51.210;2.934;2023-04-24T04:08:33;10.00;99.90
18733;DHT22;9495;51.210;2.934;2023-04-24T04:11:01;9.90;99.90
18733;DHT22;9495;51.210;2.934;2023-04-24T04:13:31;9.90;99.90
18733;DHT22;9495;51.210;2.934;2023-04-24T04:16:01;9.90;99.90
18733;DHT22;9495;51.210;2.934;2023-04-24T04:18:29;9.80;99.90
18733;DHT22;9495;51.210;2.934;2023-04-24T04:20:58;9.80;99.90
18733;DHT22;9495;51.210;2.934;2023-04-24T04:23:28;9.80;99.90
18733;DHT22;9495;51.210;2.934;2023-04-24T04:25:57;9.90;99.90
18733;DHT22;9495;51.210;2.934;2023-04-24T04:28:25;10.00;99.90
18733;DHT22;9495;51.210;2.934;2023-04-24T04:30:54;9.90;99.90
18733;DHT22;9495;51.210;2.934;2023-04-24T04:33:25;9.90;99.90
18733;DHT22;9495;51.210;2.934;2023-04-24T04:35:54;9.90;99.90
18733;DHT22;9495;51.210;2.934;2023-04-24T04:38:23;9.80;99.90
18733;DHT22;9495;51.210;2.934;2023-04-24T04:40:53;9.90;99.90
18733;DHT22;9495;51.210;2.934;2023-04-24T04:43:24;9.90;99.90
18733;DHT22;9495;51.210;2.934;2023-04-24T04:45:53;10.00;99.90
18733;DHT22;9495;51.210;2.934;2023-04-24T04:48:24;9.90;99.90
18733;DHT22;9495;51.210;2.934;2023-04-24T04:50:54;9.80;99.90
18733;DHT22;9495;51.210;2.934;2023-04-24T04:53:23;9.80;99.90
18733;DHT22;9495;51.210;2.934;2023-04-24T04:55:51;9.90;99.90
18733;DHT22;9495;51.210;2.934;2023-04-24T04:58:20;10.00;99.90
18733;DHT22;9495;51.210;2.934;2023-04-24T05:00:48;9.90;99.90
18733;DHT22;9495;51.210;2.934;2023-04-24T05:03:17;9.90;99.90
18733;DHT22;9495;51.210;2.934;2023-04-24T05:05:49;10.00;99.90
18733;DHT22;9495;51.210;2.934;2023-04-24T05:08:17;10.00;99.90
18733;DHT22;9495;51.210;2.934;2023-04-24T05:10:53;10.00;99.90
18733;DHT22;9495;51.210;2.934;2023-04-24T05:13:22;9.90;99.90
18733;DHT22;9495;51.210;2.934;2023-04-24T05:16:06;9.90;99.90
18733;DHT22;9495;51.210;2.934;2023-04-24T05:18:34;10.00;99.90
18733;DHT22;9495;51.210;2.934;2023-04-24T05:21:05;9.90;99.90
18733;DHT22;9495;51.210;2.934;2023-04-24T05:23:33;9.90;99.90
18733;DHT22;9495;51.210;2.934;2023-04-24T05:26:01;9.90;99.90
18733;DHT22;9495;51.210;2.934;2023-04-24T05:28:33;10.00;99.90
18733;DHT22;9495;51.210;2.934;2023-04-24T05:31:04;10.10;99.90
18733;DHT22;9495;51.210;2.934;2023-04-24T05:33:33;9.90;99.90
18733;DHT22;9495;51.210;2.934;2023-04-24T05:36:01;9.80;99.90
18733;DHT22;9495;51.210;2.934;2023-04-24T05:38:31;9.90;99.90
18733;DHT22;9495;51.210;2.934;2023-04-24T05:40:59;10.10;99.90
18733;DHT22;9495;51.210;2.934;2023-04-24T05:43:28;10.20;99.90
18733;DHT22;9495;51.210;2.934;2023-04-24T05:45:56;10.20;99.90
18733;DHT22;9495;51.210;2.934;2023-04-24T05:48:25;10.20;99.90
18733;DHT22;9495;51.210;2.934;2023-04-24T05:50:53;10.20;99.90
18733;DHT22;9495;51.210;2.934;2023-04-24T05:53:21;10.00;99.90
18733;DHT22;9495;51.210;2.934;2023-04-24T05:55:51;9.90;99.90
18733;DHT22;9495;51.210;2.934;2023-04-24T05:58:20;9.90;99.90
18733;DHT22;9495;51.210;2.934;2023-04-24T06:00:49;9.90;99.90
18733;DHT22;9495;51.210;2.934;2023-04-24T06:03:17;10.00;99.90
18733;DHT22;9495;51.210;2.934;2023-04-24T06:05:46;10.00;99.90
18733;DHT22;9495;51.210;2.934;2023-04-24T06:08:15;9.90;99.90
18733;DHT22;9495;51.210;2.934;2023-04-24T06:10:43;9.80;99.90
18733;DHT22;9495;51.210;2.934;2023-04-24T06:13:13;9.90;99.90
18733;DHT22;9495;51.210;2.934;2023-04-24T06:15:42;9.80;99.90
18733;DHT22;9495;51.210;2.934;2023-04-24T06:18:11;9.80;99.90
18733;DHT22;9495;51.210;2.934;2023-04-24T06:20:39;9.90;99.90
18733;DHT22;9495;51.210;2.934;2023-04-24T06:23:08;9.80;99.90
18733;DHT22;9495;51.210;2.934;2023-04-24T06:25:36;9.80;99.90
18733;DHT22;9495;51.210;2.934;2023-04-24T06:28:05;9.70;99.90
18733;DHT22;9495;51.210;2.934;2023-04-24T06:30:35;9.70;99.90
18733;DHT22;9495;51.210;2.934;2023-04-24T06:33:04;9.70;99.90
18733;DHT22;9495;51.210;2.934;2023-04-24T06:35:46;9.80;99.90
18733;DHT22;9495;51.210;2.934;2023-04-24T06:38:15;9.70;99.90
18733;DHT22;9495;51.210;2.934;2023-04-24T06:40:44;9.70;99.90
18733;DHT22;9495;51.210;2.934;2023-04-24T06:43:12;9.90;99.90
18733;DHT22;9495;51.210;2.934;2023-04-24T06:45:43;10.10;99.90
18733;DHT22;9495;51.210;2.934;2023-04-24T06:48:12;10.00;99.90
18733;DHT22;9495;51.210;2.934;2023-04-24T06:50:41;10.10;99.90
18733;DHT22;9495;51.210;2.934;2023-04-24T06:53:09;10.00;99.90
18733;DHT22;9495;51.210;2.934;2023-04-24T06:55:39;9.80;99.90
18733;DHT22;9495;51.210;2.934;2023-04-24T06:58:08;9.70;99.90
18733;DHT22;9495;51.210;2.934;2023-04-24T07:00:36;9.70;99.90
18733;DHT22;9495;51.210;2.934;2023-04-24T07:03:06;9.70;99.90
18733;DHT22;9495;51.210;2.934;2023-04-24T07:05:35;9.80;99.90
18733;DHT22;9495;51.210;2.934;2023-04-24T07:08:05;9.80;99.90
18733;DHT22;9495;51.210;2.934;2023-04-24T07:10:35;9.80;99.90
18733;DHT22;9495;51.210;2.934;2023-04-24T07:13:04;9.70;99.90
18733;DHT22;9495;51.210;2.934;2023-04-24T07:15:34;9.70;99.90
18733;DHT22;9495;51.210;2.934;2023-04-24T07:18:02;9.80;99.90
18733;DHT22;9495;51.210;2.934;2023-04-24T07:20:33;9.90;99.90
18733;DHT22;9495;51.210;2.934;2023-04-24T07:23:02;9.90;99.90
18733;DHT22;9495;51.210;2.934;2023-04-24T07:25:30;10.00;99.90
18733;DHT22;9495;51.210;2.934;2023-04-24T07:27:59;10.10;99.90
18733;DHT22;9495;51.210;2.934;2023-04-24T07:30:28;10.40;99.90
18733;DHT22;9495;51.210;2.934;2023-04-24T07:32:56;10.30;99.90
18733;DHT22;9495;51.210;2.934;2023-04-24T07:35:26;10.20;99.90
18733;DHT22;9495;51.210;2.934;2023-04-24T07:37:56;9.90;99.90
18733;DHT22;9495;51.210;2.934;2023-04-24T07:40:24;9.80;99.90
18733;DHT22;9495;51.210;2.934;2023-04-24T07:42:53;9.80;99.90
18733;DHT22;9495;51.210;2.934;2023-04-24T07:45:21;9.90;99.90
18733;DHT22;9495;51.210;2.934;2023-04-24T07:47:50;10.00;99.90
18733;DHT22;9495;51.210;2.934;2023-04-24T07:50:19;10.20;99.90
18733;DHT22;9495;51.210;2.934;2023-04-24T07:52:48;10.10;99.90
18733;DHT22;9495;51.210;2.934;2023-04-24T07:55:17;10.00;99.90
18733;DHT22;9495;51.210;2.934;2023-04-24T07:57:49;10.00;99.90
18733;DHT22;9495;51.210;2.934;2023-04-24T08:00:18;10.00;99.90
18733;DHT22;9495;51.210;2.934;2023-04-24T08:02:47;10.10;99.90
18733;DHT22;9495;51.210;2.934;2023-04-24T08:05:16;10.00;99.90
18733;DHT22;9495;51.210;2.934;2023-04-24T08:07:45;10.10;99.90
18733;DHT22;9495;51.210;2.934;2023-04-24T08:10:17;10.10;99.90
18733;DHT22;9495;51.210;2.934;2023-04-24T08:12:45;10.30;99.90
18733;DHT22;9495;51.210;2.934;2023-04-24T08:15:13;10.20;99.90
18733;DHT22;9495;51.210;2.934;2023-04-24T08:17:42;10.10;99.90
18733;DHT22;9495;51.210;2.934;2023-04-24T08:20:11;10.10;99.90
18733;DHT22;9495;51.210;2.934;2023-04-24T08:22:42;10.10;99.90
18733;DHT22;9495;51.210;2.934;2023-04-24T08:25:11;10.00;99.90
18733;DHT22;9495;51.210;2.934;2023-04-24T08:27:41;10.10;99.90
18733;DHT22;9495;51.210;2.934;2023-04-24T08:30:10;10.00;99.90
18733;DHT22;9495;51.210;2.934;2023-04-24T08:32:38;10.00;99.90
18733;DHT22;9495;51.210;2.934;2023-04-24T08:35:07;10.10;99.90
18733;DHT22;9495;51.210;2.934;2023-04-24T08:37:36;10.20;99.90
18733;DHT22;9495;51.210;2.934;2023-04-24T08:40:11;10.10;99.90
18733;DHT22;9495;51.210;2.934;2023-04-24T08:42:42;10.20;99.90
18733;DHT22;9495;51.210;2.934;2023-04-24T08:45:12;10.40;99.90
18733;DHT22;9495;51.210;2.934;2023-04-24T08:47:41;10.50;99.90
18733;DHT22;9495;51.210;2.934;2023-04-24T08:50:11;10.40;99.90
18733;DHT22;9495;51.210;2.934;2023-04-24T08:52:40;10.60;99.90
18733;DHT22;9495;51.210;2.934;2023-04-24T08:55:09;10.50;99.90
18733;DHT22;9495;51.210;2.934;2023-04-24T08:57:38;10.60;99.90
18733;DHT22;9495;51.210;2.934;2023-04-24T09:00:10;10.40;99.90
18733;DHT22;9495;51.210;2.934;2023-04-24T09:02:41;10.40;99.90
18733;DHT22;9495;51.210;2.934;2023-04-24T09:05:10;10.50;99.90
18733;DHT22;9495;51.210;2.934;2023-04-24T09:07:42;10.60;99.90
18733;DHT22;9495;51.210;2.934;2023-04-24T09:10:12;10.60;99.90
18733;DHT22;9495;51.210;2.934;2023-04-24T09:12:41;10.50;99.90
18733;DHT22;9495;51.210;2.934;2023-04-24T09:15:13;10.50;99.90
18733;DHT22;9495;51.210;2.934;2023-04-24T09:17:42;10.70;99.90
18733;DHT22;9495;51.210;2.934;2023-04-24T09:20:11;10.70;99.90
18733;DHT22;9495;51.210;2.934;2023-04-24T09:22:40;10.70;99.90
18733;DHT22;9495;51.210;2.934;2023-04-24T09:25:10;10.90;99.90
18733;DHT22;9495;51.210;2.934;2023-04-24T09:27:42;11.30;99.90
18733;DHT22;9495;51.210;2.934;2023-04-24T09:30:13;11.70;99.90
18733;DHT22;9495;51.210;2.934;2023-04-24T09:32:42;11.40;99.90
18733;DHT22;9495;51.210;2.934;2023-04-24T09:35:11;11.40;99.90
18733;DHT22;9495;51.210;2.934;2023-04-24T09:37:42;11.10;99.90
18733;DHT22;9495;51.210;2.934;2023-04-24T09:40:15;11.20;99.90
18733;DHT22;9495;51.210;2.934;2023-04-24T09:42:44;11.50;99.90
18733;DHT22;9495;51.210;2.934;2023-04-24T09:45:15;11.50;99.90
18733;DHT22;9495;51.210;2.934;2023-04-24T09:47:44;11.30;99.90
18733;DHT22;9495;51.210;2.934;2023-04-24T09:50:14;11.30;99.90
18733;DHT22;9495;51.210;2.934;2023-04-24T09:52:44;11.00;99.90
18733;DHT22;9495;51.210;2.934;2023-04-24T09:55:18;11.50;99.90
18733;DHT22;9495;51.210;2.934;2023-04-24T09:57:54;11.90;99.90
18733;DHT22;9495;51.210;2.934;2023-04-24T10:00:25;11.90;99.90
18733;DHT22;9495;51.210;2.934;2023-04-24T10:02:58;11.80;99.90
18733;DHT22;9495;51.210;2.934;2023-04-24T10:05:30;11.60;99.90
18733;DHT22;9495;51.210;2.934;2023-04-24T10:08:04;11.50;99.90
18733;DHT22;9495;51.210;2.934;2023-04-24T10:10:38;11.00;99.90
18733;DHT22;9495;51.210;2.934;2023-04-24T10:13:07;10.80;99.90
18733;DHT22;9495;51.210;2.934;2023-04-24T10:15:37;10.70;99.90
18733;DHT22;9495;51.210;2.934;2023-04-24T10:18:07;10.80;99.90
18733;DHT22;9495;51.210;2.934;2023-04-24T10:20:38;10.70;99.90
18733;DHT22;9495;51.210;2.934;2023-04-24T10:23:07;10.70;99.90
18733;DHT22;9495;51.210;2.934;2023-04-24T10:25:36;10.40;99.90
18733;DHT22;9495;51.210;2.934;2023-04-24T10:28:05;10.50;99.90
18733;DHT22;9495;51.210;2.934;2023-04-24T10:30:39;10.50;99.90
18733;DHT22;9495;51.210;2.934;2023-04-24T10:33:10;10.60;99.90
18733;DHT22;9495;51.210;2.934;2023-04-24T10:35:42;10.50;99.90
18733;DHT22;9495;51.210;2.934;2023-04-24T10:38:12;10.50;99.90
18733;DHT22;9495;51.210;2.934;2023-04-24T10:40:42;10.50;99.90
18733;DHT22;9495;51.210;2.934;2023-04-24T10:43:10;10.50;99.90
18733;DHT22;9495;51.210;2.934;2023-04-24T10:46:01;10.60;99.90
18733;DHT22;9495;51.210;2.934;2023-04-24T10:48:30;10.60;99.90
18733;DHT22;9495;51.210;2.934;2023-04-24T10:50:59;10.40;99.90
18733;DHT22;9495;51.210;2.934;2023-04-24T10:53:28;10.50;99.90
18733;DHT22;9495;51.210;2.934;2023-04-24T10:56:03;10.80;99.90
18733;DHT22;9495;51.210;2.934;2023-04-24T10:58:42;10.60;99.90
18733;DHT22;9495;51.210;2.934;2023-04-24T11:01:25;10.60;99.90
18733;DHT22;9495;51.210;2.934;2023-04-24T11:03:56;10.70;99.90
18733;DHT22;9495;51.210;2.934;2023-04-24T11:06:31;10.60;99.90
18733;DHT22;9495;51.210;2.934;2023-04-24T11:09:04;10.70;99.90
18733;DHT22;9495;51.210;2.934;2023-04-24T11:11:34;10.80;99.90
18733;DHT22;9495;51.210;2.934;2023-04-24T11:14:05;10.90;99.90
18733;DHT22;9495;51.210;2.934;2023-04-24T11:16:44;10.70;99.90
18733;DHT22;9495;51.210;2.934;2023-04-24T11:19:21;10.60;99.90
18733;DHT22;9495;51.210;2.934;2023-04-24T11:21:57;10.60;99.90
18733;DHT22;9495;51.210;2.934;2023-04-24T11:24:28;10.70;99.90
18733;DHT22;9495;51.210;2.934;2023-04-24T11:26:59;11.00;99.90
18733;DHT22;9495;51.210;2.934;2023-04-24T11:29:42;10.80;99.90
18733;DHT22;9495;51.210;2.934;2023-04-24T11:32:17;11.00;99.90
18733;DHT22;9495;51.210;2.934;2023-04-24T11:34:48;11.00;99.90
18733;DHT22;9495;51.210;2.934;2023-04-24T11:37:16;11.10;99.90
18733;DHT22;9495;51.210;2.934;2023-04-24T11:39:45;11.20;99.90
18733;DHT22;9495;51.210;2.934;2023-04-24T11:42:15;11.00;99.90
18733;DHT22;9495;51.210;2.934;2023-04-24T11:44:43;10.90;99.90
18733;DHT22;9495;51.210;2.934;2023-04-24T11:47:15;10.80;99.90
18733;DHT22;9495;51.210;2.934;2023-04-24T11:49:44;11.00;99.90
18733;DHT22;9495;51.210;2.934;2023-04-24T11:52:15;11.00;99.90
18733;DHT22;9495;51.210;2.934;2023-04-24T11:54:48;11.10;99.90
18733;DHT22;9495;51.210;2.934;2023-04-24T11:57:19;11.30;99.90
18733;DHT22;9495;51.210;2.934;2023-04-24T11:59:49;11.50;99.90
18733;DHT22;9495;51.210;2.934;2023-04-24T12:02:22;11.80;99.90
18733;DHT22;9495;51.210;2.934;2023-04-24T12:04:52;11.20;99.90
18733;DHT22;9495;51.210;2.934;2023-04-24T12:07:21;11.30;99.90
18733;DHT22;9495;51.210;2.934;2023-04-24T12:09:55;11.50;99.90
18733;DHT22;9495;51.210;2.934;2023-04-24T12:12:25;11.70;99.90
18733;DHT22;9495;51.210;2.934;2023-04-24T12:14:55;11.50;99.90
18733;DHT22;9495;51.210;2.934;2023-04-24T12:17:27;11.40;99.90
18733;DHT22;9495;51.210;2.934;2023-04-24T12:19:58;11.30;99.90
18733;DHT22;9495;51.210;2.934;2023-04-24T12:22:28;11.40;99.90
18733;DHT22;9495;51.210;2.934;2023-04-24T12:25:01;11.50;99.90
18733;DHT22;9495;51.210;2.934;2023-04-24T12:27:31;11.80;99.90
18733;DHT22;9495;51.210;2.934;2023-04-24T12:30:01;11.80;99.90
18733;DHT22;9495;51.210;2.934;2023-04-24T12:32:31;11.70;99.90
18733;DHT22;9495;51.210;2.934;2023-04-24T12:35:00;11.60;99.90
18733;DHT22;9495;51.210;2.934;2023-04-24T12:37:33;11.70;99.90
18733;DHT22;9495;51.210;2.934;2023-04-24T12:40:05;11.80;99.90
18733;DHT22;9495;51.210;2.934;2023-04-24T12:42:36;11.60;99.90
18733;DHT22;9495;51.210;2.934;2023-04-24T12:45:09;11.60;99.90
18733;DHT22;9495;51.210;2.934;2023-04-24T12:47:41;11.90;99.90
18733;DHT22;9495;51.210;2.934;2023-04-24T12:50:10;11.40;99.90
18733;DHT22;9495;51.210;2.934;2023-04-24T12:52:39;11.30;99.90
18733;DHT22;9495;51.210;2.934;2023-04-24T12:55:08;11.30;99.90
18733;DHT22;9495;51.210;2.934;2023-04-24T12:57:37;11.40;99.90
18733;DHT22;9495;51.210;2.934;2023-04-24T13:00:08;11.30;99.90
18733;DHT22;9495;51.210;2.934;2023-04-24T13:02:36;11.40;99.90
18733;DHT22;9495;51.210;2.934;2023-04-24T13:05:07;11.60;99.90
18733;DHT22;9495;51.210;2.934;2023-04-24T13:07:35;11.70;99.90
18733;DHT22;9495;51.210;2.934;2023-04-24T13:10:04;11.40;99.90
18733;DHT22;9495;51.210;2.934;2023-04-24T13:12:33;11.40;99.90
18733;DHT22;9495;51.210;2.934;2023-04-24T13:15:01;11.20;99.90
18733;DHT22;9495;51.210;2.934;2023-04-24T13:17:30;11.20;99.90
18733;DHT22;9495;51.210;2.934;2023-04-24T13:19:58;11.40;99.90
18733;DHT22;9495;51.210;2.934;2023-04-24T13:22:28;11.40;99.90
18733;DHT22;9495;51.210;2.934;2023-04-24T13:24:56;11.80;99.90
18733;DHT22;9495;51.210;2.934;2023-04-24T13:27:25;11.80;99.90
18733;DHT22;9495;51.210;2.934;2023-04-24T13:29:53;11.60;99.90
18733;DHT22;9495;51.210;2.934;2023-04-24T13:32:21;11.40;99.90
18733;DHT22;9495;51.210;2.934;2023-04-24T13:34:50;11.80;99.90
18733;DHT22;9495;51.210;2.934;2023-04-24T13:37:18;11.90;99.90
18733;DHT22;9495;51.210;2.934;2023-04-24T13:39:47;11.70;99.90
18733;DHT22;9495;51.210;2.934;2023-04-24T13:42:17;11.60;99.90
18733;DHT22;9495;51.210;2.934;2023-04-24T13:44:47;11.70;99.90
18733;DHT22;9495;51.210;2.934;2023-04-24T13:47:15;12.40;99.90
18733;DHT22;9495;51.210;2.934;2023-04-24T13:49:43;12.20;99.90
18733;DHT22;9495;51.210;2.934;2023-04-24T13:52:11;12.00;99.90
18733;DHT22;9495;51.210;2.934;2023-04-24T13:54:40;12.00;99.90
18733;DHT22;9495;51.210;2.934;2023-04-24T13:57:10;12.00;99.90
18733;DHT22;9495;51.210;2.934;2023-04-24T13:59:39;12.00;99.90
18733;DHT22;9495;51.210;2.934;2023-04-24T14:02:07;12.00;99.90
18733;DHT22;9495;51.210;2.934;2023-04-24T14:04:36;11.80;99.90
18733;DHT22;9495;51.210;2.934;2023-04-24T14:07:05;12.00;99.90
18733;DHT22;9495;51.210;2.934;2023-04-24T14:09:34;12.00;99.90
18733;DHT22;9495;51.210;2.934;2023-04-24T14:12:03;12.10;99.90
18733;DHT22;9495;51.210;2.934;2023-04-24T14:14:33;11.90;99.90
18733;DHT22;9495;51.210;2.934;2023-04-24T14:17:02;12.10;99.90
18733;DHT22;9495;51.210;2.934;2023-04-24T14:19:30;12.00;99.90
18733;DHT22;9495;51.210;2.934;2023-04-24T14:21:59;11.90;99.90
18733;DHT22;9495;51.210;2.934;2023-04-24T14:24:28;11.70;99.90
18733;DHT22;9495;51.210;2.934;2023-04-24T14:26:56;11.90;99.90
18733;DHT22;9495;51.210;2.934;2023-04-24T14:29:25;12.00;99.90
18733;DHT22;9495;51.210;2.934;2023-04-24T14:31:54;12.20;99.90
18733;DHT22;9495;51.210;2.934;2023-04-24T14:34:23;11.70;99.90
18733;DHT22;9495;51.210;2.934;2023-04-24T14:36:52;11.90;99.90
18733;DHT22;9495;51.210;2.934;2023-04-24T14:39:21;11.70;99.90
18733;DHT22;9495;51.210;2.934;2023-04-24T14:41:49;11.90;99.90
18733;DHT22;9495;51.210;2.934;2023-04-24T14:44:18;12.10;99.90
18733;DHT22;9495;51.210;2.934;2023-04-24T14:46:46;11.70;99.90
18733;DHT22;9495;51.210;2.934;2023-04-24T14:49:16;11.70;99.90
18733;DHT22;9495;51.210;2.934;2023-04-24T14:51:44;11.80;99.90
18733;DHT22;9495;51.210;2.934;2023-04-24T14:54:13;11.70;99.90
18733;DHT22;9495;51.210;2.934;2023-04-24T14:56:41;11.80;99.90
18733;DHT22;9495;51.210;2.934;2023-04-24T14:59:11;12.00;99.90
18733;DHT22;9495;51.210;2.934;2023-04-24T15:01:39;11.90;99.90
18733;DHT22;9495;51.210;2.934;2023-04-24T15:04:08;11.90;99.90
18733;DHT22;9495;51.210;2.934;2023-04-24T15:06:38;11.80;99.90
18733;DHT22;9495;51.210;2.934;2023-04-24T15:09:06;11.90;99.90
18733;DHT22;9495;51.210;2.934;2023-04-24T15:11:35;11.80;99.90
18733;DHT22;9495;51.210;2.934;2023-04-24T15:14:03;11.80;99.90
18733;DHT22;9495;51.210;2.934;2023-04-24T15:16:31;11.70;99.90
18733;DHT22;9495;51.210;2.934;2023-04-24T15:19:00;11.70;99.90
18733;DHT22;9495;51.210;2.934;2023-04-24T15:21:28;11.90;99.90
18733;DHT22;9495;51.210;2.934;2023-04-24T15:23:58;11.90;99.90
18733;DHT22;9495;51.210;2.934;2023-04-24T15:26:27;11.80;99.90
18733;DHT22;9495;51.210;2.934;2023-04-24T15:28:55;11.80;99.90
18733;DHT22;9495;51.210;2.934;2023-04-24T15:31:23;11.90;99.90
18733;DHT22;9495;51.210;2.934;2023-04-24T15:33:52;11.90;99.90
18733;DHT22;9495;51.210;2.934;2023-04-24T15:36:20;11.70;99.90
18733;DHT22;9495;51.210;2.934;2023-04-24T15:38:49;11.70;99.90
18733;DHT22;9495;51.210;2.934;2023-04-24T15:41:19;11.80;99.90
18733;DHT22;9495;51.210;2.934;2023-04-24T15:43:47;11.90;99.90
18733;DHT22;9495;51.210;2.934;2023-04-24T15:46:16;11.80;99.90
18733;DHT22;9495;51.210;2.934;2023-04-24T15:48:44;11.80;99.90
18733;DHT22;9495;51.210;2.934;2023-04-24T15:51:13;11.90;99.90
18733;DHT22;9495;51.210;2.934;2023-04-24T15:53:41;11.80;99.90
18733;DHT22;9495;51.210;2.934;2023-04-24T15:56:10;11.90;99.90
18733;DHT22;9495;51.210;2.934;2023-04-24T15:58:39;11.90;99.90
18733;DHT22;9495;51.210;2.934;2023-04-24T16:01:08;12.10;99.90
18733;DHT22;9495;51.210;2.934;2023-04-24T16:03:36;11.90;99.90